createdAt,value
2019-04-10T00:02:56.026Z,952.7
2019-04-10T00:13:00.666Z,953.2
2019-04-10T00:23:04.118Z,953.6
2019-04-10T00:33:08.557Z,954.4
2019-04-10T00:43:13.020Z,954
2019-04-10T00:53:17.322Z,954.2
2019-04-10T01:03:23.658Z,952.8
2019-04-10T01:13:27.454Z,953.5
2019-04-10T01:23:31.239Z,954.3
2019-04-10T01:33:34.853Z,953.4
2019-04-10T01:43:39.531Z,953.7
2019-04-10T01:53:44.266Z,953
2019-04-10T02:03:47.670Z,953.5
2019-04-10T02:13:52.091Z,953.8
2019-04-10T02:23:55.705Z,953.9
2019-04-10T02:34:02.015Z,953.1
2019-04-10T02:44:05.547Z,952.9
2019-04-10T02:54:15.342Z,952.8
2019-04-10T03:04:21.298Z,953.5
2019-04-10T03:14:28.258Z,953.3
2019-04-10T03:24:31.872Z,954.1
2019-04-10T03:34:48.805Z,953.2
2019-04-10T03:44:52.460Z,952.9
2019-04-10T03:54:56.831Z,952.6
2019-04-10T04:05:00.511Z,953.5
2019-04-10T04:15:04.031Z,954.1
2019-04-10T04:25:08.574Z,953.3
2019-04-10T04:35:13.314Z,953.5
2019-04-10T04:45:17.667Z,953.3
2019-04-10T04:55:22.129Z,953.5
2019-04-10T05:05:25.651Z,953.6
2019-04-10T05:15:29.404Z,953.2
2019-04-10T05:25:36.182Z,953
2019-04-10T05:35:40.135Z,953.3
2019-04-10T05:45:43.618Z,953.6
2019-04-10T05:55:47.617Z,953.6
2019-04-10T06:05:51.155Z,954
2019-04-10T06:15:55.415Z,954.1
2019-04-10T06:25:58.915Z,953.9
2019-04-10T06:36:03.205Z,953.9
2019-04-10T06:46:06.814Z,953.9
2019-04-10T06:56:11.597Z,953.5
2019-04-10T07:06:52.595Z,953.6
2019-04-10T07:17:11.221Z,953.3
2019-04-10T07:27:17.181Z,953.4
2019-04-10T07:37:27.098Z,953.4
2019-04-10T07:47:31.716Z,953.5
2019-04-10T07:57:36.487Z,953.6
2019-04-10T08:07:40.930Z,953.3
2019-04-10T08:17:44.796Z,953.4
2019-04-10T08:27:48.384Z,953.2
2019-04-10T08:37:53.130Z,952.9
2019-04-10T08:47:57.631Z,952.7
2019-04-10T08:58:01.109Z,951.9
2019-04-10T09:08:04.822Z,952
2019-04-10T09:18:12.980Z,958.8
2019-04-10T09:28:16.515Z,958.3
2019-04-10T09:38:21.228Z,958.6
2019-04-10T09:48:24.635Z,958.7
2019-04-10T09:58:28.080Z,959
2019-04-10T10:08:31.986Z,958.9
2019-04-10T10:18:35.613Z,959.2
2019-04-10T10:28:39.803Z,958.9
2019-04-10T10:38:43.696Z,959
2019-04-10T10:48:48.362Z,959.1
2019-04-10T10:58:59.082Z,959.2
2019-04-10T11:09:04.064Z,959.1
2019-04-10T11:19:07.840Z,959.1
2019-04-10T11:29:12.137Z,958.8
2019-04-10T11:41:26.278Z,959
2019-04-10T11:51:39.043Z,959.1
2019-04-10T12:01:56.001Z,959.1
2019-04-10T12:12:01.877Z,958.7
2019-04-10T12:22:05.746Z,958.9
2019-04-10T12:32:09.417Z,958.7
2019-04-10T12:42:12.836Z,958.8
2019-04-10T12:52:16.758Z,958.7
2019-04-10T13:02:20.899Z,958.3
2019-04-10T13:12:25.346Z,958.1
2019-04-10T13:22:28.809Z,958
2019-04-10T13:32:32.252Z,958.3
2019-04-10T13:42:35.691Z,958.3
2019-04-10T13:52:39.139Z,958.2
2019-04-10T14:02:42.860Z,958.2
2019-04-10T14:12:47.473Z,958.2
2019-04-10T14:22:50.893Z,958.5
2019-04-10T14:32:56.830Z,958.8
2019-04-10T14:43:00.278Z,958.8
2019-04-10T14:53:03.725Z,958.4
2019-04-10T15:03:07.146Z,958.5
2019-04-10T15:13:24.401Z,958.5
2019-04-10T15:23:29.968Z,958.6
2019-04-10T15:33:33.371Z,958.4
2019-04-10T15:43:37.506Z,958.3
2019-04-10T15:53:41.385Z,958.2
2019-04-10T16:03:45.293Z,958.4
2019-04-10T16:13:48.879Z,958.6
2019-04-10T16:23:52.328Z,958.5
2019-04-10T16:33:56.971Z,958.7
2019-04-10T16:44:00.855Z,958.6
2019-04-10T16:54:04.606Z,958.8
2019-04-10T17:04:09.271Z,959.4
2019-04-10T17:14:13.543Z,959.1
2019-04-10T17:24:17.770Z,959.7
2019-04-10T17:34:21.232Z,959.9
2019-04-10T17:44:26.685Z,960
2019-04-10T17:54:32.125Z,960
2019-04-10T18:04:36.266Z,960.1
2019-04-10T18:14:44.672Z,960.2
2019-04-10T18:24:49.994Z,960.5
2019-04-10T18:34:54.746Z,960.5
2019-04-10T18:45:00.133Z,960.7
2019-04-10T18:55:05.824Z,960.6
2019-04-10T19:05:10.483Z,960.7
2019-04-10T19:15:15.533Z,961
2019-04-10T19:25:19.157Z,961.2
2019-04-10T19:35:23.598Z,961.6
2019-04-10T19:45:28.217Z,961.8
2019-04-10T19:55:32.619Z,961.9
2019-04-10T20:05:39.227Z,962.1
2019-04-10T20:15:43.019Z,961.5
2019-04-10T20:25:46.668Z,961.5
2019-04-10T20:35:51.166Z,961.5
2019-04-10T20:45:55.847Z,961.4
2019-04-10T20:56:01.883Z,961.8
2019-04-10T21:06:07.143Z,961.8
2019-04-10T21:16:11.688Z,961.7
2019-04-10T21:26:16.098Z,961.9
2019-04-10T21:36:20.843Z,961.8
2019-04-10T21:46:24.566Z,962
2019-04-10T21:56:29.052Z,962.1
2019-04-10T22:06:39.311Z,962.2
2019-04-10T22:16:44.682Z,955
2019-04-10T22:26:48.185Z,962.2
2019-04-10T22:36:51.660Z,962.2
2019-04-10T22:46:55.081Z,954.8
2019-04-10T22:56:58.809Z,954.8
2019-04-10T23:07:02.253Z,955.2
2019-04-10T23:17:05.688Z,954.9
2019-04-10T23:27:09.691Z,955
2019-04-10T23:37:13.252Z,955.2
2019-04-10T23:47:16.693Z,955.4
2019-04-10T23:57:21.455Z,955.4
